sensor_id;sensor_type;location;lat;lon;timestamp;pressure;altitude;pressure_sealevel;temperature;humidity
12793;BME280;6460;42.684;23.260;2023-04-27T00:02:07;94297.56;;;7.91;64.66
12793;BME280;6460;42.684;23.260;2023-04-27T00:04:51;94308.53;;;8.02;64.14
12793;BME280;6460;42.684;23.260;2023-04-27T00:07:18;94302.31;;;7.98;64.62
12793;BME280;6460;42.684;23.260;2023-04-27T00:09:45;94311.91;;;7.99;64.55
12793;BME280;6460;42.684;23.260;2023-04-27T00:12:12;94312.69;;;7.99;63.98
12793;BME280;6460;42.684;23.260;2023-04-27T00:14:39;94318.03;;;7.99;64.53
12793;BME280;6460;42.684;23.260;2023-04-27T00:17:08;94319.50;;;7.81;64.66
12793;BME280;6460;42.684;23.260;2023-04-27T00:19:34;94317.06;;;7.92;63.96
12793;BME280;6460;42.684;23.260;2023-04-27T00:22:01;94315.28;;;7.96;63.88
12793;BME280;6460;42.684;23.260;2023-04-27T00:24:28;94322.78;;;7.75;64.29
12793;BME280;6460;42.684;23.260;2023-04-27T00:26:55;94322.31;;;7.73;64.74
12793;BME280;6460;42.684;23.260;2023-04-27T00:29:22;94315.94;;;7.62;65.55
12793;BME280;6460;42.684;23.260;2023-04-27T00:31:49;94317.34;;;7.87;64.67
12793;BME280;6460;42.684;23.260;2023-04-27T00:34:17;94316.28;;;7.76;64.42
12793;BME280;6460;42.684;23.260;2023-04-27T00:36:44;94319.72;;;7.61;65.07
12793;BME280;6460;42.684;23.260;2023-04-27T00:39:11;94312.13;;;7.63;64.71
12793;BME280;6460;42.684;23.260;2023-04-27T00:41:38;94312.81;;;7.60;65.01
12793;BME280;6460;42.684;23.260;2023-04-27T00:44:05;94306.69;;;7.59;64.68
12793;BME280;6460;42.684;23.260;2023-04-27T00:46:32;94310.00;;;7.40;65.43
12793;BME280;6460;42.684;23.260;2023-04-27T00:49:00;94320.63;;;7.37;65.76
12793;BME280;6460;42.684;23.260;2023-04-27T00:51:28;94311.50;;;7.26;65.46
12793;BME280;6460;42.684;23.260;2023-04-27T00:53:56;94313.59;;;7.32;65.87
12793;BME280;6460;42.684;23.260;2023-04-27T00:56:24;94320.13;;;7.19;66.33
12793;BME280;6460;42.684;23.260;2023-04-27T00:58:51;94312.53;;;7.21;65.89
12793;BME280;6460;42.684;23.260;2023-04-27T01:01:18;94312.25;;;7.11;66.58
12793;BME280;6460;42.684;23.260;2023-04-27T01:03:46;94317.13;;;7.09;67.06
12793;BME280;6460;42.684;23.260;2023-04-27T01:06:13;94316.53;;;7.27;66.36
12793;BME280;6460;42.684;23.260;2023-04-27T01:08:41;94314.75;;;6.91;67.09
12793;BME280;6460;42.684;23.260;2023-04-27T01:11:08;94320.09;;;6.91;67.58
12793;BME280;6460;42.684;23.260;2023-04-27T01:13:35;94324.50;;;7.00;67.70
12793;BME280;6460;42.684;23.260;2023-04-27T01:16:02;94329.53;;;7.01;66.76
12793;BME280;6460;42.684;23.260;2023-04-27T01:18:29;94323.09;;;6.90;67.56
12793;BME280;6460;42.684;23.260;2023-04-27T01:20:56;94330.91;;;6.71;68.37
12793;BME280;6460;42.684;23.260;2023-04-27T01:23:26;94330.31;;;6.89;67.89
12793;BME280;6460;42.684;23.260;2023-04-27T01:25:53;94335.69;;;6.77;68.24
12793;BME280;6460;42.684;23.260;2023-04-27T01:28:20;94324.88;;;6.98;67.30
12793;BME280;6460;42.684;23.260;2023-04-27T01:30:47;94330.69;;;6.64;68.57
12793;BME280;6460;42.684;23.260;2023-04-27T01:33:14;94332.31;;;6.41;69.64
12793;BME280;6460;42.684;23.260;2023-04-27T01:35:41;94335.47;;;6.70;68.79
12793;BME280;6460;42.684;23.260;2023-04-27T01:38:08;94348.63;;;6.63;68.69
12793;BME280;6460;42.684;23.260;2023-04-27T01:40:36;94343.72;;;6.65;68.80
12793;BME280;6460;42.684;23.260;2023-04-27T01:43:03;94340.50;;;6.60;68.34
12793;BME280;6460;42.684;23.260;2023-04-27T01:45:30;94343.09;;;6.44;69.38
12793;BME280;6460;42.684;23.260;2023-04-27T01:47:57;94347.41;;;6.73;68.33
12793;BME280;6460;42.684;23.260;2023-04-27T02:03:33;94341.38;;;6.64;67.71
12793;BME280;6460;42.684;23.260;2023-04-27T02:06:00;94338.28;;;6.62;67.46
12793;BME280;6460;42.684;23.260;2023-04-27T02:08:27;94349.41;;;6.52;68.38
12793;BME280;6460;42.684;23.260;2023-04-27T02:10:54;94345.28;;;6.66;68.08
12793;BME280;6460;42.684;23.260;2023-04-27T02:13:21;94354.53;;;6.45;68.28
12793;BME280;6460;42.684;23.260;2023-04-27T02:15:48;94343.63;;;6.50;67.83
12793;BME280;6460;42.684;23.260;2023-04-27T02:18:15;94350.72;;;6.58;67.79
12793;BME280;6460;42.684;23.260;2023-04-27T02:20:44;94352.63;;;6.81;67.29
12793;BME280;6460;42.684;23.260;2023-04-27T02:23:11;94351.03;;;6.80;67.27
12793;BME280;6460;42.684;23.260;2023-04-27T02:25:38;94352.94;;;6.68;67.15
12793;BME280;6460;42.684;23.260;2023-04-27T02:28:07;94349.41;;;6.76;66.80
12793;BME280;6460;42.684;23.260;2023-04-27T02:30:35;94350.00;;;6.97;65.88
12793;BME280;6460;42.684;23.260;2023-04-27T02:33:02;94354.63;;;6.72;66.31
12793;BME280;6460;42.684;23.260;2023-04-27T02:35:29;94345.38;;;6.82;65.14
12793;BME280;6460;42.684;23.260;2023-04-27T02:37:59;94348.44;;;6.96;65.08
12793;BME280;6460;42.684;23.260;2023-04-27T02:40:26;94355.31;;;7.09;64.73
12793;BME280;6460;42.684;23.260;2023-04-27T02:42:53;94353.69;;;6.92;64.96
12793;BME280;6460;42.684;23.260;2023-04-27T02:45:20;94356.16;;;6.85;65.13
12793;BME280;6460;42.684;23.260;2023-04-27T02:47:46;94358.91;;;7.01;64.19
12793;BME280;6460;42.684;23.260;2023-04-27T02:50:15;94359.94;;;6.84;64.67
12793;BME280;6460;42.684;23.260;2023-04-27T02:52:42;94355.56;;;7.04;64.65
12793;BME280;6460;42.684;23.260;2023-04-27T02:55:10;94358.72;;;6.94;65.12
12793;BME280;6460;42.684;23.260;2023-04-27T02:57:37;94362.72;;;6.88;64.94
12793;BME280;6460;42.684;23.260;2023-04-27T03:00:06;94364.94;;;6.98;64.31
12793;BME280;6460;42.684;23.260;2023-04-27T03:02:35;94365.63;;;6.95;64.52
12793;BME280;6460;42.684;23.260;2023-04-27T03:05:02;94369.41;;;6.82;64.68
12793;BME280;6460;42.684;23.260;2023-04-27T03:07:31;94377.28;;;6.90;65.01
12793;BME280;6460;42.684;23.260;2023-04-27T03:09:58;94374.50;;;6.87;63.84
12793;BME280;6460;42.684;23.260;2023-04-27T03:12:26;94371.19;;;6.78;65.14
12793;BME280;6460;42.684;23.260;2023-04-27T03:14:53;94376.88;;;6.64;64.81
12793;BME280;6460;42.684;23.260;2023-04-27T03:17:20;94380.13;;;6.70;64.62
12793;BME280;6460;42.684;23.260;2023-04-27T03:19:47;94388.22;;;6.73;64.85
12793;BME280;6460;42.684;23.260;2023-04-27T03:22:14;94384.78;;;6.61;64.68
12793;BME280;6460;42.684;23.260;2023-04-27T03:24:41;94380.09;;;6.58;65.51
12793;BME280;6460;42.684;23.260;2023-04-27T03:27:08;94372.31;;;6.65;65.78
12793;BME280;6460;42.684;23.260;2023-04-27T03:29:36;94381.22;;;6.69;65.11
12793;BME280;6460;42.684;23.260;2023-04-27T03:32:32;94383.47;;;6.67;65.21
12793;BME280;6460;42.684;23.260;2023-04-27T03:35:00;94387.22;;;6.66;65.26
12793;BME280;6460;42.684;23.260;2023-04-27T03:37:40;94388.56;;;6.60;64.80
12793;BME280;6460;42.684;23.260;2023-04-27T03:40:11;94393.69;;;6.53;65.43
12793;BME280;6460;42.684;23.260;2023-04-27T03:42:41;94413.34;;;6.48;64.97
12793;BME280;6460;42.684;23.260;2023-04-27T03:45:10;94401.47;;;6.46;64.95
12793;BME280;6460;42.684;23.260;2023-04-27T03:47:37;94399.47;;;6.43;65.13
12793;BME280;6460;42.684;23.260;2023-04-27T03:50:05;94392.59;;;6.54;64.68
12793;BME280;6460;42.684;23.260;2023-04-27T03:52:42;94404.91;;;6.46;64.99
12793;BME280;6460;42.684;23.260;2023-04-27T03:55:09;94400.78;;;6.49;65.66
12793;BME280;6460;42.684;23.260;2023-04-27T03:57:36;94410.13;;;6.43;65.50
12793;BME280;6460;42.684;23.260;2023-04-27T04:00:03;94413.25;;;6.45;65.07
12793;BME280;6460;42.684;23.260;2023-04-27T04:02:37;94414.25;;;6.52;64.91
12793;BME280;6460;42.684;23.260;2023-04-27T04:05:04;94427.25;;;6.29;64.99
12793;BME280;6460;42.684;23.260;2023-04-27T04:07:31;94422.38;;;6.44;64.54
12793;BME280;6460;42.684;23.260;2023-04-27T04:09:59;94436.03;;;6.42;65.04
12793;BME280;6460;42.684;23.260;2023-04-27T04:12:26;94432.81;;;6.49;65.07
12793;BME280;6460;42.684;23.260;2023-04-27T04:14:53;94443.50;;;6.36;64.86
12793;BME280;6460;42.684;23.260;2023-04-27T04:20:48;94437.13;;;6.29;65.13
12793;BME280;6460;42.684;23.260;2023-04-27T04:23:20;94435.47;;;6.24;65.27
12793;BME280;6460;42.684;23.260;2023-04-27T04:25:50;94446.94;;;6.25;65.24
12793;BME280;6460;42.684;23.260;2023-04-27T04:28:24;94447.69;;;6.25;65.29
12793;BME280;6460;42.684;23.260;2023-04-27T04:30:51;94448.59;;;6.42;64.71
12793;BME280;6460;42.684;23.260;2023-04-27T04:33:21;94446.84;;;6.46;64.39
12793;BME280;6460;42.684;23.260;2023-04-27T04:35:58;94452.66;;;6.60;63.79
12793;BME280;6460;42.684;23.260;2023-04-27T04:38:36;94449.50;;;6.46;64.06
12793;BME280;6460;42.684;23.260;2023-04-27T04:41:07;94452.84;;;6.55;64.46
12793;BME280;6460;42.684;23.260;2023-04-27T04:43:40;94451.75;;;6.68;64.40
12793;BME280;6460;42.684;23.260;2023-04-27T04:46:10;94451.56;;;6.73;65.43
12793;BME280;6460;42.684;23.260;2023-04-27T04:48:38;94464.13;;;6.84;64.66
12793;BME280;6460;42.684;23.260;2023-04-27T04:51:13;94457.66;;;7.10;64.18
12793;BME280;6460;42.684;23.260;2023-04-27T04:53:43;94468.09;;;7.15;62.72
12793;BME280;6460;42.684;23.260;2023-04-27T04:56:12;94460.88;;;7.03;63.07
12793;BME280;6460;42.684;23.260;2023-04-27T04:58:40;94471.13;;;7.01;63.97
12793;BME280;6460;42.684;23.260;2023-04-27T05:01:12;94468.00;;;7.11;63.01
12793;BME280;6460;42.684;23.260;2023-04-27T05:03:53;94475.66;;;7.37;62.51
12793;BME280;6460;42.684;23.260;2023-04-27T05:06:30;94473.53;;;7.42;62.65
12793;BME280;6460;42.684;23.260;2023-04-27T05:09:03;94479.97;;;7.41;62.89
12793;BME280;6460;42.684;23.260;2023-04-27T05:18:48;94488.44;;;7.56;63.79
12793;BME280;6460;42.684;23.260;2023-04-27T05:38:36;94507.50;;;7.06;65.57
12793;BME280;6460;42.684;23.260;2023-04-27T05:41:05;94505.09;;;7.01;66.11
12793;BME280;6460;42.684;23.260;2023-04-27T05:57:29;94509.84;;;6.83;66.89
12793;BME280;6460;42.684;23.260;2023-04-27T05:59:57;94512.75;;;7.02;66.67
12793;BME280;6460;42.684;23.260;2023-04-27T06:02:26;94510.84;;;7.15;66.45
12793;BME280;6460;42.684;23.260;2023-04-27T06:04:56;94510.50;;;7.28;65.56
12793;BME280;6460;42.684;23.260;2023-04-27T06:07:26;94522.09;;;7.32;65.91
12793;BME280;6460;42.684;23.260;2023-04-27T06:13:18;94509.19;;;7.47;66.59
12793;BME280;6460;42.684;23.260;2023-04-27T06:18:57;94507.63;;;7.85;64.54
12793;BME280;6460;42.684;23.260;2023-04-27T06:21:34;94509.75;;;7.80;63.90
12793;BME280;6460;42.684;23.260;2023-04-27T06:24:34;94506.50;;;7.86;63.67
12793;BME280;6460;42.684;23.260;2023-04-27T06:37:21;94502.41;;;8.17;60.66
12793;BME280;6460;42.684;23.260;2023-04-27T06:39:48;94498.56;;;8.30;61.21
12793;BME280;6460;42.684;23.260;2023-04-27T06:45:57;94493.31;;;8.49;59.74
12793;BME280;6460;42.684;23.260;2023-04-27T06:48:57;94503.34;;;8.52;59.85
12793;BME280;6460;42.684;23.260;2023-04-27T06:55:23;94510.66;;;8.83;58.24
12793;BME280;6460;42.684;23.260;2023-04-27T06:57:58;94498.81;;;8.99;57.76
12793;BME280;6460;42.684;23.260;2023-04-27T07:00:26;94500.19;;;9.09;55.98
12793;BME280;6460;42.684;23.260;2023-04-27T07:02:59;94496.72;;;9.24;55.97
12793;BME280;6460;42.684;23.260;2023-04-27T07:05:26;94486.63;;;9.52;55.94
12793;BME280;6460;42.684;23.260;2023-04-27T07:28:56;94460.88;;;9.32;56.21
12793;BME280;6460;42.684;23.260;2023-04-27T07:31:27;94474.91;;;9.80;55.59
12793;BME280;6460;42.684;23.260;2023-04-27T07:40:57;94497.94;;;9.81;55.14
12793;BME280;6460;42.684;23.260;2023-04-27T07:43:26;94487.22;;;9.81;54.30
12793;BME280;6460;42.684;23.260;2023-04-27T07:49:16;94468.84;;;10.21;53.34
12793;BME280;6460;42.684;23.260;2023-04-27T07:51:57;94476.78;;;10.33;52.42
12793;BME280;6460;42.684;23.260;2023-04-27T07:57:51;94475.59;;;10.53;51.07
12793;BME280;6460;42.684;23.260;2023-04-27T08:00:18;94483.91;;;10.26;50.55
12793;BME280;6460;42.684;23.260;2023-04-27T08:02:59;94464.88;;;10.76;50.41
12793;BME280;6460;42.684;23.260;2023-04-27T08:05:29;94468.91;;;11.12;49.35
12793;BME280;6460;42.684;23.260;2023-04-27T08:25:28;94481.44;;;11.27;48.67
12793;BME280;6460;42.684;23.260;2023-04-27T08:27:55;94468.00;;;11.53;47.41
12793;BME280;6460;42.684;23.260;2023-04-27T08:30:22;94473.69;;;11.48;48.22
12793;BME280;6460;42.684;23.260;2023-04-27T08:56:24;94466.34;;;11.72;44.68
12793;BME280;6460;42.684;23.260;2023-04-27T08:59:01;94459.88;;;12.06;44.39
12793;BME280;6460;42.684;23.260;2023-04-27T09:11:48;94479.69;;;12.24;42.54
12793;BME280;6460;42.684;23.260;2023-04-27T09:14:17;94465.28;;;12.43;43.03
12793;BME280;6460;42.684;23.260;2023-04-27T09:17:01;94451.75;;;12.76;43.99
12793;BME280;6460;42.684;23.260;2023-04-27T09:22:46;94452.88;;;12.38;43.37
12793;BME280;6460;42.684;23.260;2023-04-27T09:25:25;94445.81;;;13.04;40.87
12793;BME280;6460;42.684;23.260;2023-04-27T09:27:55;94456.56;;;13.00;41.56
12793;BME280;6460;42.684;23.260;2023-04-27T09:33:45;94457.53;;;13.22;39.05
12793;BME280;6460;42.684;23.260;2023-04-27T09:39:31;94444.50;;;13.31;42.74
12793;BME280;6460;42.684;23.260;2023-04-27T09:41:59;94436.88;;;13.44;39.16
12793;BME280;6460;42.684;23.260;2023-04-27T09:44:29;94439.47;;;13.30;37.36
12793;BME280;6460;42.684;23.260;2023-04-27T09:46:58;94422.41;;;13.80;37.49
12793;BME280;6460;42.684;23.260;2023-04-27T09:49:27;94412.50;;;14.09;37.58
12793;BME280;6460;42.684;23.260;2023-04-27T09:51:55;94421.72;;;13.94;38.80
12793;BME280;6460;42.684;23.260;2023-04-27T09:54:26;94427.34;;;14.57;37.33
12793;BME280;6460;42.684;23.260;2023-04-27T09:57:08;94425.38;;;14.51;36.64
12793;BME280;6460;42.684;23.260;2023-04-27T10:00:02;94407.66;;;14.81;35.82
12793;BME280;6460;42.684;23.260;2023-04-27T10:02:41;94406.09;;;14.84;34.17
12793;BME280;6460;42.684;23.260;2023-04-27T10:05:31;94409.06;;;14.19;35.76
12793;BME280;6460;42.684;23.260;2023-04-27T10:08:02;94428.97;;;13.14;38.54
12793;BME280;6460;42.684;23.260;2023-04-27T10:10:41;94437.50;;;13.23;36.61
12793;BME280;6460;42.684;23.260;2023-04-27T10:13:20;94426.94;;;12.23;37.51
12793;BME280;6460;42.684;23.260;2023-04-27T10:15:49;94417.00;;;12.27;39.25
12793;BME280;6460;42.684;23.260;2023-04-27T10:18:28;94427.84;;;12.74;38.00
12793;BME280;6460;42.684;23.260;2023-04-27T10:20:56;94424.38;;;13.21;38.58
12793;BME280;6460;42.684;23.260;2023-04-27T10:23:25;94425.59;;;13.31;38.44
12793;BME280;6460;42.684;23.260;2023-04-27T10:25:53;94411.41;;;13.41;37.91
12793;BME280;6460;42.684;23.260;2023-04-27T10:28:22;94415.88;;;13.16;39.03
12793;BME280;6460;42.684;23.260;2023-04-27T10:30:51;94419.03;;;13.29;37.88
12793;BME280;6460;42.684;23.260;2023-04-27T10:33:22;94402.59;;;14.48;35.40
12793;BME280;6460;42.684;23.260;2023-04-27T10:35:57;94410.31;;;14.46;34.93
12793;BME280;6460;42.684;23.260;2023-04-27T10:38:30;94411.78;;;14.26;35.14
12793;BME280;6460;42.684;23.260;2023-04-27T10:40:59;94419.41;;;13.99;36.89
12793;BME280;6460;42.684;23.260;2023-04-27T10:43:28;94414.53;;;14.37;35.39
12793;BME280;6460;42.684;23.260;2023-04-27T10:46:08;94412.50;;;14.12;34.63
12793;BME280;6460;42.684;23.260;2023-04-27T10:48:37;94413.81;;;13.60;33.82
12793;BME280;6460;42.684;23.260;2023-04-27T10:51:24;94426.03;;;13.40;34.56
12793;BME280;6460;42.684;23.260;2023-04-27T10:53:54;94430.91;;;13.86;35.03
12793;BME280;6460;42.684;23.260;2023-04-27T10:56:22;94428.72;;;12.86;36.70
12793;BME280;6460;42.684;23.260;2023-04-27T10:59:18;94430.28;;;12.90;36.76
12793;BME280;6460;42.684;23.260;2023-04-27T11:01:48;94419.88;;;12.89;37.01
12793;BME280;6460;42.684;23.260;2023-04-27T11:04:15;94419.41;;;12.39;37.06
12793;BME280;6460;42.684;23.260;2023-04-27T11:06:53;94410.75;;;12.56;37.76
12793;BME280;6460;42.684;23.260;2023-04-27T11:09:26;94412.94;;;12.88;37.25
12793;BME280;6460;42.684;23.260;2023-04-27T11:11:54;94405.84;;;13.16;36.30
12793;BME280;6460;42.684;23.260;2023-04-27T11:14:21;94407.22;;;13.00;38.34
12793;BME280;6460;42.684;23.260;2023-04-27T11:16:50;94409.13;;;13.43;37.39
12793;BME280;6460;42.684;23.260;2023-04-27T11:23:15;94410.88;;;13.87;36.44
12793;BME280;6460;42.684;23.260;2023-04-27T11:36:35;94427.41;;;13.13;37.25
12793;BME280;6460;42.684;23.260;2023-04-27T11:39:03;94420.50;;;13.19;37.87
12793;BME280;6460;42.684;23.260;2023-04-27T11:41:35;94421.31;;;13.23;38.63
12793;BME280;6460;42.684;23.260;2023-04-27T11:44:36;94423.78;;;13.46;36.80
12793;BME280;6460;42.684;23.260;2023-04-27T11:50:31;94429.25;;;13.63;36.24
12793;BME280;6460;42.684;23.260;2023-04-27T12:10:11;94430.47;;;14.77;33.14
12793;BME280;6460;42.684;23.260;2023-04-27T12:12:38;94421.91;;;14.54;34.37
12793;BME280;6460;42.684;23.260;2023-04-27T12:15:07;94429.41;;;13.92;35.50
12793;BME280;6460;42.684;23.260;2023-04-27T12:17:34;94439.25;;;13.59;35.50
12793;BME280;6460;42.684;23.260;2023-04-27T12:20:04;94433.13;;;13.59;35.93
12793;BME280;6460;42.684;23.260;2023-04-27T12:22:35;94427.25;;;13.50;36.44
12793;BME280;6460;42.684;23.260;2023-04-27T12:25:02;94417.00;;;13.80;36.23
12793;BME280;6460;42.684;23.260;2023-04-27T13:03:58;94423.97;;;13.81;35.68
12793;BME280;6460;42.684;23.260;2023-04-27T13:06:28;94424.78;;;13.96;36.08
12793;BME280;6460;42.684;23.260;2023-04-27T13:09:01;94429.81;;;13.94;36.38
12793;BME280;6460;42.684;23.260;2023-04-27T13:21:53;94418.91;;;13.72;35.26
12793;BME280;6460;42.684;23.260;2023-04-27T13:24:20;94424.72;;;13.74;35.36
12793;BME280;6460;42.684;23.260;2023-04-27T13:27:07;94423.16;;;13.73;35.11
12793;BME280;6460;42.684;23.260;2023-04-27T13:33:06;94417.41;;;13.86;35.48
12793;BME280;6460;42.684;23.260;2023-04-27T13:39:00;94419.03;;;13.97;35.51
12793;BME280;6460;42.684;23.260;2023-04-27T13:41:27;94414.84;;;14.17;35.45
12793;BME280;6460;42.684;23.260;2023-04-27T13:43:54;94430.13;;;13.85;35.62
12793;BME280;6460;42.684;23.260;2023-04-27T13:50:21;94435.31;;;13.39;36.19
12793;BME280;6460;42.684;23.260;2023-04-27T13:59:39;94430.75;;;13.54;36.39
12793;BME280;6460;42.684;23.260;2023-04-27T14:02:06;94421.59;;;13.65;35.74
12793;BME280;6460;42.684;23.260;2023-04-27T14:04:34;94442.06;;;13.77;35.95
12793;BME280;6460;42.684;23.260;2023-04-27T14:07:00;94441.44;;;13.33;35.77
12793;BME280;6460;42.684;23.260;2023-04-27T14:09:27;94444.78;;;13.19;36.47
12793;BME280;6460;42.684;23.260;2023-04-27T14:11:55;94441.00;;;13.27;36.49
12793;BME280;6460;42.684;23.260;2023-04-27T14:14:22;94448.66;;;13.21;36.99
12793;BME280;6460;42.684;23.260;2023-04-27T14:16:52;94461.00;;;13.22;36.87
12793;BME280;6460;42.684;23.260;2023-04-27T14:19:21;94452.63;;;12.91;38.06
12793;BME280;6460;42.684;23.260;2023-04-27T14:21:48;94459.00;;;13.12;37.60
12793;BME280;6460;42.684;23.260;2023-04-27T14:24:15;94462.34;;;13.02;36.74
12793;BME280;6460;42.684;23.260;2023-04-27T14:26:51;94464.38;;;13.09;36.83
12793;BME280;6460;42.684;23.260;2023-04-27T14:29:19;94466.25;;;13.05;35.79
12793;BME280;6460;42.684;23.260;2023-04-27T14:31:52;94469.22;;;12.93;36.25
12793;BME280;6460;42.684;23.260;2023-04-27T14:34:20;94470.69;;;13.27;36.33
12793;BME280;6460;42.684;23.260;2023-04-27T14:36:48;94471.16;;;13.36;35.90
12793;BME280;6460;42.684;23.260;2023-04-27T14:39:15;94481.16;;;13.36;35.24
12793;BME280;6460;42.684;23.260;2023-04-27T14:41:43;94468.16;;;13.01;35.68
12793;BME280;6460;42.684;23.260;2023-04-27T14:44:10;94467.50;;;13.11;36.08
12793;BME280;6460;42.684;23.260;2023-04-27T14:53:23;94486.28;;;13.04;37.16
12793;BME280;6460;42.684;23.260;2023-04-27T14:55:51;94484.47;;;13.15;36.56
12793;BME280;6460;42.684;23.260;2023-04-27T14:58:18;94495.91;;;13.01;36.84
12793;BME280;6460;42.684;23.260;2023-04-27T15:00:47;94500.91;;;12.29;37.60
12793;BME280;6460;42.684;23.260;2023-04-27T15:03:15;94498.22;;;12.29;37.49
12793;BME280;6460;42.684;23.260;2023-04-27T15:05:51;94497.34;;;12.18;39.01
12793;BME280;6460;42.684;23.260;2023-04-27T15:08:19;94501.09;;;12.43;37.57
12793;BME280;6460;42.684;23.260;2023-04-27T15:44:33;94530.84;;;11.91;40.23
12793;BME280;6460;42.684;23.260;2023-04-27T15:47:02;94526.38;;;12.02;39.43
12793;BME280;6460;42.684;23.260;2023-04-27T15:49:29;94526.91;;;11.85;40.41
12793;BME280;6460;42.684;23.260;2023-04-27T15:51:58;94531.38;;;11.74;40.83
12793;BME280;6460;42.684;23.260;2023-04-27T15:54:40;94520.00;;;11.84;40.11
12793;BME280;6460;42.684;23.260;2023-04-27T16:15:46;94550.50;;;11.95;41.01
12793;BME280;6460;42.684;23.260;2023-04-27T16:51:42;94595.16;;;11.24;44.98
12793;BME280;6460;42.684;23.260;2023-04-27T16:54:10;94598.03;;;11.35;45.15
12793;BME280;6460;42.684;23.260;2023-04-27T16:56:43;94588.44;;;11.37;44.89
12793;BME280;6460;42.684;23.260;2023-04-27T16:59:25;94607.59;;;11.32;45.44
12793;BME280;6460;42.684;23.260;2023-04-27T17:02:01;94594.66;;;11.19;46.20
12793;BME280;6460;42.684;23.260;2023-04-27T17:04:34;94599.31;;;10.99;46.51
12793;BME280;6460;42.684;23.260;2023-04-27T17:07:30;94605.25;;;10.89;47.65
12793;BME280;6460;42.684;23.260;2023-04-27T17:09:58;94605.41;;;10.96;47.79
12793;BME280;6460;42.684;23.260;2023-04-27T17:12:26;94609.06;;;10.65;48.59
12793;BME280;6460;42.684;23.260;2023-04-27T17:14:54;94611.81;;;10.69;48.93
12793;BME280;6460;42.684;23.260;2023-04-27T17:17:23;94617.03;;;10.81;48.45
12793;BME280;6460;42.684;23.260;2023-04-27T17:20:23;94623.13;;;10.58;49.37
12793;BME280;6460;42.684;23.260;2023-04-27T17:26:26;94615.22;;;10.46;49.84
12793;BME280;6460;42.684;23.260;2023-04-27T17:28:58;94627.22;;;10.33;50.31
12793;BME280;6460;42.684;23.260;2023-04-27T17:31:28;94624.25;;;10.38;50.51
12793;BME280;6460;42.684;23.260;2023-04-27T17:34:30;94626.28;;;10.26;51.07
12793;BME280;6460;42.684;23.260;2023-04-27T17:37:11;94631.09;;;10.36;51.06
12793;BME280;6460;42.684;23.260;2023-04-27T17:39:39;94628.13;;;10.41;51.08
12793;BME280;6460;42.684;23.260;2023-04-27T17:42:07;94634.41;;;10.29;51.42
12793;BME280;6460;42.684;23.260;2023-04-27T17:44:36;94652.50;;;10.32;51.29
12793;BME280;6460;42.684;23.260;2023-04-27T17:47:06;94652.34;;;10.25;51.60
12793;BME280;6460;42.684;23.260;2023-04-27T17:49:33;94655.03;;;10.25;52.00
12793;BME280;6460;42.684;23.260;2023-04-27T17:52:00;94662.13;;;10.33;51.85
12793;BME280;6460;42.684;23.260;2023-04-27T17:54:27;94662.69;;;10.23;51.95
12793;BME280;6460;42.684;23.260;2023-04-27T17:56:54;94674.25;;;10.11;52.34
12793;BME280;6460;42.684;23.260;2023-04-27T17:59:22;94675.31;;;10.23;51.88
12793;BME280;6460;42.684;23.260;2023-04-27T18:01:50;94683.28;;;10.03;52.56
12793;BME280;6460;42.684;23.260;2023-04-27T18:04:17;94675.25;;;9.88;53.12
12793;BME280;6460;42.684;23.260;2023-04-27T18:06:44;94691.25;;;10.16;52.32
12793;BME280;6460;42.684;23.260;2023-04-27T18:09:11;94695.41;;;10.13;52.42
12793;BME280;6460;42.684;23.260;2023-04-27T18:11:38;94690.56;;;10.19;52.44
12793;BME280;6460;42.684;23.260;2023-04-27T18:14:05;94703.75;;;10.08;52.46
12793;BME280;6460;42.684;23.260;2023-04-27T18:16:33;94704.38;;;9.86;53.05
12793;BME280;6460;42.684;23.260;2023-04-27T18:19:00;94702.28;;;9.79;53.58
12793;BME280;6460;42.684;23.260;2023-04-27T18:21:27;94703.66;;;10.04;53.00
12793;BME280;6460;42.684;23.260;2023-04-27T18:23:55;94703.06;;;9.95;53.48
12793;BME280;6460;42.684;23.260;2023-04-27T18:26:22;94707.13;;;10.05;53.81
12793;BME280;6460;42.684;23.260;2023-04-27T18:28:49;94712.41;;;10.01;53.29
12793;BME280;6460;42.684;23.260;2023-04-27T18:31:17;94711.09;;;10.11;52.70
12793;BME280;6460;42.684;23.260;2023-04-27T18:33:46;94711.03;;;9.92;53.38
12793;BME280;6460;42.684;23.260;2023-04-27T18:36:13;94719.66;;;9.54;54.13
12793;BME280;6460;42.684;23.260;2023-04-27T18:38:39;94721.75;;;9.92;53.19
12793;BME280;6460;42.684;23.260;2023-04-27T18:41:06;94726.25;;;9.88;52.85
12793;BME280;6460;42.684;23.260;2023-04-27T18:43:34;94733.03;;;9.82;54.01
12793;BME280;6460;42.684;23.260;2023-04-27T18:46:01;94730.84;;;9.72;53.97
12793;BME280;6460;42.684;23.260;2023-04-27T18:48:28;94740.56;;;9.76;54.50
12793;BME280;6460;42.684;23.260;2023-04-27T18:50:56;94742.88;;;9.62;55.08
12793;BME280;6460;42.684;23.260;2023-04-27T18:53:23;94740.19;;;9.78;54.36
12793;BME280;6460;42.684;23.260;2023-04-27T18:55:50;94742.38;;;9.72;54.48
12793;BME280;6460;42.684;23.260;2023-04-27T18:58:17;94747.38;;;9.74;54.22
12793;BME280;6460;42.684;23.260;2023-04-27T19:00:44;94753.44;;;9.71;54.16
12793;BME280;6460;42.684;23.260;2023-04-27T19:03:11;94748.25;;;9.78;54.04
12793;BME280;6460;42.684;23.260;2023-04-27T19:05:38;94757.69;;;9.72;54.52
12793;BME280;6460;42.684;23.260;2023-04-27T19:08:08;94752.09;;;9.49;55.43
12793;BME280;6460;42.684;23.260;2023-04-27T19:10:35;94757.97;;;9.39;55.19
12793;BME280;6460;42.684;23.260;2023-04-27T19:13:05;94757.81;;;9.47;55.53
12793;BME280;6460;42.684;23.260;2023-04-27T19:15:32;94769.06;;;9.37;55.41
12793;BME280;6460;42.684;23.260;2023-04-27T19:17:59;94761.78;;;9.38;55.46
12793;BME280;6460;42.684;23.260;2023-04-27T19:20:26;94763.00;;;9.40;55.35
12793;BME280;6460;42.684;23.260;2023-04-27T19:22:53;94761.44;;;9.39;55.98
12793;BME280;6460;42.684;23.260;2023-04-27T19:25:21;94763.53;;;9.18;56.64
12793;BME280;6460;42.684;23.260;2023-04-27T19:27:49;94762.69;;;9.30;56.16
12793;BME280;6460;42.684;23.260;2023-04-27T19:30:16;94775.09;;;9.78;61.60
12793;BME280;6460;42.684;23.260;2023-04-27T19:32:42;94771.56;;;9.46;58.68